sensor_id;sensor_type;location;lat;lon;timestamp;temperature;humidity
52555;DHT22;38455;52.710;6.502;2023-04-03T00:01:28;3.30;99.90
52555;DHT22;38455;52.710;6.502;2023-04-03T00:03:54;3.30;99.90
52555;DHT22;38455;52.710;6.502;2023-04-03T00:06:20;3.20;99.90
52555;DHT22;38455;52.710;6.502;2023-04-03T00:08:45;3.30;99.90
52555;DHT22;38455;52.710;6.502;2023-04-03T00:11:11;3.20;99.90
52555;DHT22;38455;52.710;6.502;2023-04-03T00:13:38;3.20;99.90
52555;DHT22;38455;52.710;6.502;2023-04-03T00:16:04;3.20;99.90
52555;DHT22;38455;52.710;6.502;2023-04-03T00:18:31;3.20;99.90
52555;DHT22;38455;52.710;6.502;2023-04-03T00:20:57;3.20;99.90
52555;DHT22;38455;52.710;6.502;2023-04-03T00:23:23;3.10;99.90
52555;DHT22;38455;52.710;6.502;2023-04-03T00:25:49;3.10;99.90
52555;DHT22;38455;52.710;6.502;2023-04-03T00:28:15;3.10;99.90
52555;DHT22;38455;52.710;6.502;2023-04-03T00:30:41;3.10;99.90
52555;DHT22;38455;52.710;6.502;2023-04-03T00:33:08;3.10;99.90
52555;DHT22;38455;52.710;6.502;2023-04-03T00:35:35;3.10;99.90
52555;DHT22;38455;52.710;6.502;2023-04-03T00:38:00;3.00;99.90
52555;DHT22;38455;52.710;6.502;2023-04-03T00:40:27;3.00;99.90
52555;DHT22;38455;52.710;6.502;2023-04-03T00:42:59;3.00;99.90
52555;DHT22;38455;52.710;6.502;2023-04-03T00:45:37;3.00;99.90
52555;DHT22;38455;52.710;6.502;2023-04-03T00:48:05;3.00;99.90
52555;DHT22;38455;52.710;6.502;2023-04-03T00:50:34;3.00;99.90
52555;DHT22;38455;52.710;6.502;2023-04-03T00:53:01;3.00;99.90
52555;DHT22;38455;52.710;6.502;2023-04-03T00:55:27;2.90;99.90
52555;DHT22;38455;52.710;6.502;2023-04-03T00:57:55;2.90;99.90
52555;DHT22;38455;52.710;6.502;2023-04-03T01:00:22;2.90;99.90
52555;DHT22;38455;52.710;6.502;2023-04-03T01:02:49;2.90;99.90
52555;DHT22;38455;52.710;6.502;2023-04-03T01:05:16;2.80;99.90
52555;DHT22;38455;52.710;6.502;2023-04-03T01:07:42;2.80;99.90
52555;DHT22;38455;52.710;6.502;2023-04-03T01:10:11;2.80;99.90
52555;DHT22;38455;52.710;6.502;2023-04-03T01:12:41;2.80;99.90
52555;DHT22;38455;52.710;6.502;2023-04-03T01:15:14;2.70;99.90
52555;DHT22;38455;52.710;6.502;2023-04-03T01:17:46;2.70;99.90
52555;DHT22;38455;52.710;6.502;2023-04-03T01:25:53;2.60;99.90
52555;DHT22;38455;52.710;6.502;2023-04-03T01:28:22;2.60;99.90
52555;DHT22;38455;52.710;6.502;2023-04-03T01:33:20;2.60;99.90
52555;DHT22;38455;52.710;6.502;2023-04-03T01:35:46;2.50;99.90
52555;DHT22;38455;52.710;6.502;2023-04-03T01:38:11;2.50;99.90
52555;DHT22;38455;52.710;6.502;2023-04-03T01:40:37;2.50;99.90
52555;DHT22;38455;52.710;6.502;2023-04-03T01:43:03;2.50;99.90
52555;DHT22;38455;52.710;6.502;2023-04-03T01:45:28;2.50;99.90
52555;DHT22;38455;52.710;6.502;2023-04-03T01:47:54;2.50;99.90
52555;DHT22;38455;52.710;6.502;2023-04-03T01:50:20;2.40;99.90
52555;DHT22;38455;52.710;6.502;2023-04-03T01:52:45;2.40;99.90
52555;DHT22;38455;52.710;6.502;2023-04-03T01:55:11;2.40;99.90
52555;DHT22;38455;52.710;6.502;2023-04-03T01:57:36;2.40;99.90
52555;DHT22;38455;52.710;6.502;2023-04-03T02:00:03;2.30;99.90
52555;DHT22;38455;52.710;6.502;2023-04-03T02:02:29;2.40;99.90
52555;DHT22;38455;52.710;6.502;2023-04-03T02:04:54;2.30;99.90
52555;DHT22;38455;52.710;6.502;2023-04-03T02:07:20;2.30;99.90
52555;DHT22;38455;52.710;6.502;2023-04-03T02:09:46;2.30;99.90
52555;DHT22;38455;52.710;6.502;2023-04-03T02:12:11;2.30;99.90
52555;DHT22;38455;52.710;6.502;2023-04-03T02:14:37;2.30;99.90
52555;DHT22;38455;52.710;6.502;2023-04-03T02:17:02;2.20;99.90
52555;DHT22;38455;52.710;6.502;2023-04-03T02:19:31;2.20;99.90
52555;DHT22;38455;52.710;6.502;2023-04-03T02:21:56;2.20;99.90
52555;DHT22;38455;52.710;6.502;2023-04-03T02:24:22;2.20;99.90
52555;DHT22;38455;52.710;6.502;2023-04-03T02:26:47;2.10;99.90
52555;DHT22;38455;52.710;6.502;2023-04-03T02:29:13;2.10;99.90
52555;DHT22;38455;52.710;6.502;2023-04-03T02:31:39;2.10;99.90
52555;DHT22;38455;52.710;6.502;2023-04-03T02:34:04;2.10;99.90
52555;DHT22;38455;52.710;6.502;2023-04-03T02:36:31;2.10;99.90
52555;DHT22;38455;52.710;6.502;2023-04-03T02:38:56;2.00;99.90
52555;DHT22;38455;52.710;6.502;2023-04-03T02:41:22;2.00;99.90
52555;DHT22;38455;52.710;6.502;2023-04-03T02:43:48;2.00;99.90
52555;DHT22;38455;52.710;6.502;2023-04-03T02:46:14;2.00;99.90
52555;DHT22;38455;52.710;6.502;2023-04-03T02:48:40;2.00;99.90
52555;DHT22;38455;52.710;6.502;2023-04-03T02:51:06;2.00;99.90
52555;DHT22;38455;52.710;6.502;2023-04-03T02:53:32;2.00;99.90
52555;DHT22;38455;52.710;6.502;2023-04-03T02:55:57;1.90;99.90
52555;DHT22;38455;52.710;6.502;2023-04-03T02:58:23;1.90;99.90
52555;DHT22;38455;52.710;6.502;2023-04-03T03:00:49;1.90;99.90
52555;DHT22;38455;52.710;6.502;2023-04-03T03:03:14;1.90;99.90
52555;DHT22;38455;52.710;6.502;2023-04-03T03:05:40;1.80;99.90
52555;DHT22;38455;52.710;6.502;2023-04-03T03:08:06;1.80;99.90
52555;DHT22;38455;52.710;6.502;2023-04-03T03:10:31;1.80;99.90
52555;DHT22;38455;52.710;6.502;2023-04-03T03:12:57;1.70;99.90
52555;DHT22;38455;52.710;6.502;2023-04-03T03:15:22;1.70;99.90
52555;DHT22;38455;52.710;6.502;2023-04-03T03:17:48;1.70;99.90
52555;DHT22;38455;52.710;6.502;2023-04-03T03:20:14;1.60;99.90
52555;DHT22;38455;52.710;6.502;2023-04-03T03:22:40;1.60;99.90
52555;DHT22;38455;52.710;6.502;2023-04-03T03:25:07;1.60;99.90
52555;DHT22;38455;52.710;6.502;2023-04-03T03:27:32;1.60;99.90
52555;DHT22;38455;52.710;6.502;2023-04-03T03:29:58;1.60;99.90
52555;DHT22;38455;52.710;6.502;2023-04-03T03:32:23;1.50;99.90
52555;DHT22;38455;52.710;6.502;2023-04-03T03:34:49;1.50;99.90
52555;DHT22;38455;52.710;6.502;2023-04-03T03:37:15;1.50;99.90
52555;DHT22;38455;52.710;6.502;2023-04-03T03:39:41;1.50;99.90
52555;DHT22;38455;52.710;6.502;2023-04-03T03:42:06;1.40;99.90
52555;DHT22;38455;52.710;6.502;2023-04-03T03:44:32;1.40;99.90
52555;DHT22;38455;52.710;6.502;2023-04-03T03:46:58;1.40;99.90
52555;DHT22;38455;52.710;6.502;2023-04-03T03:49:23;1.30;99.90
52555;DHT22;38455;52.710;6.502;2023-04-03T03:51:49;1.30;99.90
52555;DHT22;38455;52.710;6.502;2023-04-03T03:54:16;1.30;99.90
52555;DHT22;38455;52.710;6.502;2023-04-03T03:56:41;1.20;99.90
52555;DHT22;38455;52.710;6.502;2023-04-03T03:59:07;1.20;99.90
52555;DHT22;38455;52.710;6.502;2023-04-03T04:01:33;1.10;99.90
52555;DHT22;38455;52.710;6.502;2023-04-03T04:03:59;1.20;99.90
52555;DHT22;38455;52.710;6.502;2023-04-03T04:06:24;1.10;99.90
52555;DHT22;38455;52.710;6.502;2023-04-03T04:08:50;1.10;99.90
52555;DHT22;38455;52.710;6.502;2023-04-03T04:11:16;1.10;99.90
52555;DHT22;38455;52.710;6.502;2023-04-03T04:13:41;1.10;99.90
52555;DHT22;38455;52.710;6.502;2023-04-03T04:16:07;1.00;99.90
52555;DHT22;38455;52.710;6.502;2023-04-03T04:18:33;1.10;99.90
52555;DHT22;38455;52.710;6.502;2023-04-03T04:20:59;1.00;99.90
52555;DHT22;38455;52.710;6.502;2023-04-03T04:23:25;0.90;99.90
52555;DHT22;38455;52.710;6.502;2023-04-03T04:25:51;1.00;99.90
52555;DHT22;38455;52.710;6.502;2023-04-03T04:28:17;0.90;99.90
52555;DHT22;38455;52.710;6.502;2023-04-03T04:30:43;0.90;99.90
52555;DHT22;38455;52.710;6.502;2023-04-03T04:33:09;0.90;99.90
52555;DHT22;38455;52.710;6.502;2023-04-03T04:35:35;0.90;99.90
52555;DHT22;38455;52.710;6.502;2023-04-03T04:38:01;0.90;99.90
52555;DHT22;38455;52.710;6.502;2023-04-03T04:40:28;0.90;99.90
52555;DHT22;38455;52.710;6.502;2023-04-03T04:42:53;0.90;99.90
52555;DHT22;38455;52.710;6.502;2023-04-03T04:45:19;1.00;99.90
52555;DHT22;38455;52.710;6.502;2023-04-03T04:47:45;0.90;99.90
52555;DHT22;38455;52.710;6.502;2023-04-03T04:50:11;1.00;99.90
52555;DHT22;38455;52.710;6.502;2023-04-03T04:52:37;0.90;99.90
52555;DHT22;38455;52.710;6.502;2023-04-03T04:55:04;0.90;99.90
52555;DHT22;38455;52.710;6.502;2023-04-03T04:57:29;0.90;99.90
52555;DHT22;38455;52.710;6.502;2023-04-03T04:59:55;0.80;99.90
52555;DHT22;38455;52.710;6.502;2023-04-03T05:02:21;0.80;99.90
52555;DHT22;38455;52.710;6.502;2023-04-03T05:04:46;0.70;99.90
52555;DHT22;38455;52.710;6.502;2023-04-03T05:07:12;0.70;99.90
52555;DHT22;38455;52.710;6.502;2023-04-03T05:09:38;0.70;99.90
52555;DHT22;38455;52.710;6.502;2023-04-03T05:12:04;0.70;99.90
52555;DHT22;38455;52.710;6.502;2023-04-03T05:14:29;0.70;99.90
52555;DHT22;38455;52.710;6.502;2023-04-03T05:16:55;0.70;99.90
52555;DHT22;38455;52.710;6.502;2023-04-03T05:19:21;0.70;99.90
52555;DHT22;38455;52.710;6.502;2023-04-03T05:21:47;0.80;99.90
52555;DHT22;38455;52.710;6.502;2023-04-03T05:24:14;0.70;99.90
52555;DHT22;38455;52.710;6.502;2023-04-03T05:26:40;0.80;99.90
52555;DHT22;38455;52.710;6.502;2023-04-03T05:29:06;0.80;99.90
52555;DHT22;38455;52.710;6.502;2023-04-03T05:31:31;0.80;99.90
52555;DHT22;38455;52.710;6.502;2023-04-03T05:33:57;0.80;99.90
52555;DHT22;38455;52.710;6.502;2023-04-03T05:36:23;0.90;99.90
52555;DHT22;38455;52.710;6.502;2023-04-03T05:38:49;0.80;99.90
52555;DHT22;38455;52.710;6.502;2023-04-03T05:41:15;0.90;99.90
52555;DHT22;38455;52.710;6.502;2023-04-03T05:43:41;0.90;99.90
52555;DHT22;38455;52.710;6.502;2023-04-03T05:46:17;0.90;99.90
52555;DHT22;38455;52.710;6.502;2023-04-03T05:48:44;1.00;99.90
52555;DHT22;38455;52.710;6.502;2023-04-03T05:51:18;1.00;99.90
52555;DHT22;38455;52.710;6.502;2023-04-03T05:53:44;1.00;99.90
52555;DHT22;38455;52.710;6.502;2023-04-03T05:56:12;1.10;99.90
52555;DHT22;38455;52.710;6.502;2023-04-03T05:58:38;1.10;99.90
52555;DHT22;38455;52.710;6.502;2023-04-03T06:01:04;1.10;99.90
52555;DHT22;38455;52.710;6.502;2023-04-03T06:03:30;1.20;99.90
52555;DHT22;38455;52.710;6.502;2023-04-03T06:05:56;1.30;99.90
52555;DHT22;38455;52.710;6.502;2023-04-03T06:08:22;1.40;99.90
52555;DHT22;38455;52.710;6.502;2023-04-03T06:10:49;1.40;99.90
52555;DHT22;38455;52.710;6.502;2023-04-03T06:13:16;2.00;99.90
52555;DHT22;38455;52.710;6.502;2023-04-03T06:15:41;3.20;99.90
52555;DHT22;38455;52.710;6.502;2023-04-03T06:18:07;3.90;99.90
52555;DHT22;38455;52.710;6.502;2023-04-03T06:20:33;4.40;99.90
52555;DHT22;38455;52.710;6.502;2023-04-03T06:22:59;5.00;99.90
52555;DHT22;38455;52.710;6.502;2023-04-03T06:25:25;5.70;99.90
52555;DHT22;38455;52.710;6.502;2023-04-03T06:27:52;6.20;99.90
52555;DHT22;38455;52.710;6.502;2023-04-03T06:30:17;6.80;99.90
52555;DHT22;38455;52.710;6.502;2023-04-03T06:32:43;7.30;99.90
52555;DHT22;38455;52.710;6.502;2023-04-03T06:35:09;7.80;99.90
52555;DHT22;38455;52.710;6.502;2023-04-03T06:37:35;7.90;99.90
52555;DHT22;38455;52.710;6.502;2023-04-03T06:40:01;8.30;99.90
52555;DHT22;38455;52.710;6.502;2023-04-03T06:42:26;8.20;99.90
52555;DHT22;38455;52.710;6.502;2023-04-03T06:44:52;8.30;99.90
52555;DHT22;38455;52.710;6.502;2023-04-03T06:47:18;8.60;99.90
52555;DHT22;38455;52.710;6.502;2023-04-03T06:49:44;8.40;99.90
52555;DHT22;38455;52.710;6.502;2023-04-03T06:52:10;8.60;99.90
52555;DHT22;38455;52.710;6.502;2023-04-03T06:54:37;8.90;99.90
52555;DHT22;38455;52.710;6.502;2023-04-03T06:57:03;9.40;99.90
52555;DHT22;38455;52.710;6.502;2023-04-03T06:59:29;9.40;99.80
52555;DHT22;38455;52.710;6.502;2023-04-03T07:01:55;9.30;98.90
52555;DHT22;38455;52.710;6.502;2023-04-03T07:04:21;9.50;98.60
52555;DHT22;38455;52.710;6.502;2023-04-03T07:06:47;9.80;97.10
52555;DHT22;38455;52.710;6.502;2023-04-03T07:09:14;9.60;97.20
52555;DHT22;38455;52.710;6.502;2023-04-03T07:11:39;9.40;97.20
52555;DHT22;38455;52.710;6.502;2023-04-03T07:14:05;10.20;96.10
52555;DHT22;38455;52.710;6.502;2023-04-03T07:16:36;10.50;96.10
52555;DHT22;38455;52.710;6.502;2023-04-03T07:19:02;10.50;95.20
52555;DHT22;38455;52.710;6.502;2023-04-03T07:21:28;10.50;95.10
52555;DHT22;38455;52.710;6.502;2023-04-03T07:23:54;11.10;94.30
52555;DHT22;38455;52.710;6.502;2023-04-03T07:26:21;11.20;93.50
52555;DHT22;38455;52.710;6.502;2023-04-03T07:28:48;11.20;91.90
52555;DHT22;38455;52.710;6.502;2023-04-03T07:31:16;11.30;91.90
52555;DHT22;38455;52.710;6.502;2023-04-03T07:33:43;11.70;91.40
52555;DHT22;38455;52.710;6.502;2023-04-03T07:36:10;12.50;91.20
52555;DHT22;38455;52.710;6.502;2023-04-03T07:38:36;12.20;90.50
52555;DHT22;38455;52.710;6.502;2023-04-03T07:41:03;11.80;88.80
52555;DHT22;38455;52.710;6.502;2023-04-03T07:43:29;11.80;87.20
52555;DHT22;38455;52.710;6.502;2023-04-03T07:45:54;12.00;87.70
52555;DHT22;38455;52.710;6.502;2023-04-03T07:48:22;11.90;86.50
52555;DHT22;38455;52.710;6.502;2023-04-03T07:50:48;12.50;84.10
52555;DHT22;38455;52.710;6.502;2023-04-03T07:53:14;13.10;84.20
52555;DHT22;38455;52.710;6.502;2023-04-03T07:55:40;13.00;82.40
52555;DHT22;38455;52.710;6.502;2023-04-03T07:58:13;12.50;76.80
52555;DHT22;38455;52.710;6.502;2023-04-03T08:00:39;12.70;77.60
52555;DHT22;38455;52.710;6.502;2023-04-03T08:03:06;12.40;79.10
52555;DHT22;38455;52.710;6.502;2023-04-03T08:05:35;13.00;80.00
52555;DHT22;38455;52.710;6.502;2023-04-03T08:08:01;12.60;76.20
52555;DHT22;38455;52.710;6.502;2023-04-03T08:10:27;13.70;78.30
52555;DHT22;38455;52.710;6.502;2023-04-03T08:12:55;14.10;76.90
52555;DHT22;38455;52.710;6.502;2023-04-03T08:15:20;14.20;74.90
52555;DHT22;38455;52.710;6.502;2023-04-03T08:17:46;14.80;74.20
52555;DHT22;38455;52.710;6.502;2023-04-03T08:20:11;15.20;73.20
52555;DHT22;38455;52.710;6.502;2023-04-03T08:22:37;15.40;71.50
52555;DHT22;38455;52.710;6.502;2023-04-03T08:25:03;15.60;70.60
52555;DHT22;38455;52.710;6.502;2023-04-03T08:27:29;13.50;63.20
52555;DHT22;38455;52.710;6.502;2023-04-03T08:29:56;14.40;66.50
52555;DHT22;38455;52.710;6.502;2023-04-03T08:32:22;14.40;67.40
52555;DHT22;38455;52.710;6.502;2023-04-03T08:34:48;14.10;65.20
52555;DHT22;38455;52.710;6.502;2023-04-03T08:37:14;14.50;66.90
52555;DHT22;38455;52.710;6.502;2023-04-03T08:39:42;14.40;65.90
52555;DHT22;38455;52.710;6.502;2023-04-03T08:42:36;15.20;66.20
52555;DHT22;38455;52.710;6.502;2023-04-03T08:45:10;15.40;62.40
52555;DHT22;38455;52.710;6.502;2023-04-03T08:47:47;14.80;61.90
52555;DHT22;38455;52.710;6.502;2023-04-03T08:50:20;15.40;62.40
52555;DHT22;38455;52.710;6.502;2023-04-03T08:52:51;15.10;62.80
52555;DHT22;38455;52.710;6.502;2023-04-03T08:55:28;16.20;61.30
52555;DHT22;38455;52.710;6.502;2023-04-03T09:00:28;16.70;59.70
52555;DHT22;38455;52.710;6.502;2023-04-03T09:02:56;17.00;60.10
52555;DHT22;38455;52.710;6.502;2023-04-03T09:13:55;16.60;56.90
52555;DHT22;38455;52.710;6.502;2023-04-03T09:19:29;16.00;53.70
52555;DHT22;38455;52.710;6.502;2023-04-03T09:22:24;16.20;54.60
52555;DHT22;38455;52.710;6.502;2023-04-03T09:25:10;16.10;53.00
52555;DHT22;38455;52.710;6.502;2023-04-03T09:27:37;15.80;52.60
52555;DHT22;38455;52.710;6.502;2023-04-03T09:30:03;16.70;55.30
52555;DHT22;38455;52.710;6.502;2023-04-03T09:32:32;17.10;54.10
52555;DHT22;38455;52.710;6.502;2023-04-03T09:35:04;17.80;51.80
52555;DHT22;38455;52.710;6.502;2023-04-03T09:37:35;16.90;49.30
52555;DHT22;38455;52.710;6.502;2023-04-03T09:40:03;17.60;51.10
52555;DHT22;38455;52.710;6.502;2023-04-03T09:42:30;17.00;49.40
52555;DHT22;38455;52.710;6.502;2023-04-03T09:45:02;17.50;50.00
52555;DHT22;38455;52.710;6.502;2023-04-03T09:47:30;17.00;48.40
52555;DHT22;38455;52.710;6.502;2023-04-03T09:52:44;17.90;50.00
52555;DHT22;38455;52.710;6.502;2023-04-03T09:55:21;17.30;49.70
52555;DHT22;38455;52.710;6.502;2023-04-03T09:57:53;17.10;48.20
52555;DHT22;38455;52.710;6.502;2023-04-03T10:00:30;17.20;47.50
52555;DHT22;38455;52.710;6.502;2023-04-03T10:02:58;17.60;47.40
52555;DHT22;38455;52.710;6.502;2023-04-03T10:05:30;18.10;48.10
52555;DHT22;38455;52.710;6.502;2023-04-03T10:10:37;17.70;45.30
52555;DHT22;38455;52.710;6.502;2023-04-03T10:13:25;17.90;46.50
52555;DHT22;38455;52.710;6.502;2023-04-03T10:16:00;17.20;44.00
52555;DHT22;38455;52.710;6.502;2023-04-03T10:18:48;17.60;44.90
52555;DHT22;38455;52.710;6.502;2023-04-03T10:21:31;17.00;42.80
52555;DHT22;38455;52.710;6.502;2023-04-03T10:24:12;17.40;43.80
52555;DHT22;38455;52.710;6.502;2023-04-03T10:34:55;17.10;45.90
52555;DHT22;38455;52.710;6.502;2023-04-03T10:37:30;17.10;45.30
52555;DHT22;38455;52.710;6.502;2023-04-03T10:40:15;16.60;44.90
52555;DHT22;38455;52.710;6.502;2023-04-03T10:42:50;16.60;45.60
52555;DHT22;38455;52.710;6.502;2023-04-03T10:48:27;16.90;46.80
52555;DHT22;38455;52.710;6.502;2023-04-03T10:53:48;16.60;46.20
52555;DHT22;38455;52.710;6.502;2023-04-03T10:58:50;16.30;44.90
52555;DHT22;38455;52.710;6.502;2023-04-03T11:01:26;16.30;46.20
52555;DHT22;38455;52.710;6.502;2023-04-03T11:03:57;16.80;46.80
52555;DHT22;38455;52.710;6.502;2023-04-03T11:06:25;16.20;46.10
52555;DHT22;38455;52.710;6.502;2023-04-03T11:08:57;17.20;46.90
52555;DHT22;38455;52.710;6.502;2023-04-03T11:11:29;17.20;47.30
52555;DHT22;38455;52.710;6.502;2023-04-03T11:14:09;17.60;46.00
52555;DHT22;38455;52.710;6.502;2023-04-03T11:16:40;17.80;46.70
52555;DHT22;38455;52.710;6.502;2023-04-03T11:20:03;17.40;46.10
52555;DHT22;38455;52.710;6.502;2023-04-03T11:25:17;18.00;45.90
52555;DHT22;38455;52.710;6.502;2023-04-03T11:27:56;17.70;46.30
52555;DHT22;38455;52.710;6.502;2023-04-03T11:36:29;17.80;45.80
52555;DHT22;38455;52.710;6.502;2023-04-03T11:38:59;17.80;45.00
52555;DHT22;38455;52.710;6.502;2023-04-03T11:41:29;17.80;44.50
52555;DHT22;38455;52.710;6.502;2023-04-03T11:46:51;17.70;46.40
52555;DHT22;38455;52.710;6.502;2023-04-03T11:58:02;16.80;45.80
52555;DHT22;38455;52.710;6.502;2023-04-03T12:00:47;17.70;47.60
52555;DHT22;38455;52.710;6.502;2023-04-03T12:14:02;16.80;44.70
52555;DHT22;38455;52.710;6.502;2023-04-03T12:16:32;16.40;45.70
52555;DHT22;38455;52.710;6.502;2023-04-03T12:19:04;15.90;45.90
52555;DHT22;38455;52.710;6.502;2023-04-03T12:35:43;15.90;46.00
52555;DHT22;38455;52.710;6.502;2023-04-03T12:46:41;15.90;46.70
52555;DHT22;38455;52.710;6.502;2023-04-03T12:51:57;15.90;47.50
52555;DHT22;38455;52.710;6.502;2023-04-03T12:54:40;15.40;48.10
52555;DHT22;38455;52.710;6.502;2023-04-03T12:57:46;15.00;49.00
52555;DHT22;38455;52.710;6.502;2023-04-03T13:00:33;15.10;49.10
52555;DHT22;38455;52.710;6.502;2023-04-03T13:03:01;14.70;49.00
52555;DHT22;38455;52.710;6.502;2023-04-03T13:05:28;14.50;49.60
52555;DHT22;38455;52.710;6.502;2023-04-03T13:08:10;14.60;50.30
52555;DHT22;38455;52.710;6.502;2023-04-03T13:10:51;14.20;50.10
52555;DHT22;38455;52.710;6.502;2023-04-03T13:13:17;14.10;49.80
52555;DHT22;38455;52.710;6.502;2023-04-03T13:15:46;14.10;50.30
52555;DHT22;38455;52.710;6.502;2023-04-03T13:18:32;14.30;50.50
52555;DHT22;38455;52.710;6.502;2023-04-03T13:21:04;14.30;51.10
52555;DHT22;38455;52.710;6.502;2023-04-03T13:23:32;14.90;50.90
52555;DHT22;38455;52.710;6.502;2023-04-03T13:25:59;14.60;49.30
52555;DHT22;38455;52.710;6.502;2023-04-03T13:28:29;14.90;50.40
52555;DHT22;38455;52.710;6.502;2023-04-03T13:31:08;14.90;49.80
52555;DHT22;38455;52.710;6.502;2023-04-03T13:34:12;14.50;49.20
52555;DHT22;38455;52.710;6.502;2023-04-03T13:41:39;14.90;48.90
52555;DHT22;38455;52.710;6.502;2023-04-03T13:44:29;15.40;48.90
52555;DHT22;38455;52.710;6.502;2023-04-03T13:47:00;16.00;47.80
52555;DHT22;38455;52.710;6.502;2023-04-03T13:49:58;16.30;47.80
52555;DHT22;38455;52.710;6.502;2023-04-03T13:52:41;16.20;47.50
52555;DHT22;38455;52.710;6.502;2023-04-03T13:55:29;15.70;46.70
52555;DHT22;38455;52.710;6.502;2023-04-03T13:57:57;15.00;47.80
52555;DHT22;38455;52.710;6.502;2023-04-03T14:00:48;15.90;48.40
52555;DHT22;38455;52.710;6.502;2023-04-03T14:03:28;16.90;49.20
52555;DHT22;38455;52.710;6.502;2023-04-03T14:05:54;16.10;47.10
52555;DHT22;38455;52.710;6.502;2023-04-03T14:08:20;16.40;48.10
52555;DHT22;38455;52.710;6.502;2023-04-03T14:10:46;16.40;48.70
52555;DHT22;38455;52.710;6.502;2023-04-03T14:13:18;16.70;48.30
52555;DHT22;38455;52.710;6.502;2023-04-03T14:15:45;16.50;48.30
52555;DHT22;38455;52.710;6.502;2023-04-03T14:18:15;15.80;49.00
52555;DHT22;38455;52.710;6.502;2023-04-03T14:20:41;15.10;49.90
52555;DHT22;38455;52.710;6.502;2023-04-03T14:23:07;14.50;50.70
52555;DHT22;38455;52.710;6.502;2023-04-03T14:25:32;13.90;51.00
52555;DHT22;38455;52.710;6.502;2023-04-03T14:27:58;13.20;52.50
52555;DHT22;38455;52.710;6.502;2023-04-03T14:30:29;13.00;52.30
52555;DHT22;38455;52.710;6.502;2023-04-03T14:32:55;12.60;53.10
52555;DHT22;38455;52.710;6.502;2023-04-03T14:35:21;12.50;53.30
52555;DHT22;38455;52.710;6.502;2023-04-03T14:37:48;12.70;55.00
52555;DHT22;38455;52.710;6.502;2023-04-03T14:40:26;12.90;56.70
52555;DHT22;38455;52.710;6.502;2023-04-03T14:42:52;12.90;55.40
52555;DHT22;38455;52.710;6.502;2023-04-03T14:45:21;12.50;54.50
52555;DHT22;38455;52.710;6.502;2023-04-03T14:47:49;12.10;54.30
52555;DHT22;38455;52.710;6.502;2023-04-03T14:50:20;12.10;55.80
52555;DHT22;38455;52.710;6.502;2023-04-03T14:52:49;11.80;55.60
52555;DHT22;38455;52.710;6.502;2023-04-03T14:55:17;11.80;56.00
52555;DHT22;38455;52.710;6.502;2023-04-03T14:57:43;12.00;56.40
52555;DHT22;38455;52.710;6.502;2023-04-03T15:00:16;11.60;56.80
52555;DHT22;38455;52.710;6.502;2023-04-03T15:02:42;11.70;56.90
52555;DHT22;38455;52.710;6.502;2023-04-03T15:05:09;11.80;57.00
52555;DHT22;38455;52.710;6.502;2023-04-03T15:07:47;11.70;56.00
52555;DHT22;38455;52.710;6.502;2023-04-03T15:10:20;11.80;57.00
52555;DHT22;38455;52.710;6.502;2023-04-03T15:12:47;11.80;56.80
52555;DHT22;38455;52.710;6.502;2023-04-03T15:15:14;11.70;56.70
52555;DHT22;38455;52.710;6.502;2023-04-03T15:17:40;11.70;56.50
52555;DHT22;38455;52.710;6.502;2023-04-03T15:20:16;11.50;56.00
52555;DHT22;38455;52.710;6.502;2023-04-03T15:22:41;11.20;55.30
52555;DHT22;38455;52.710;6.502;2023-04-03T15:25:08;11.20;56.70
52555;DHT22;38455;52.710;6.502;2023-04-03T15:27:34;11.20;57.10
52555;DHT22;38455;52.710;6.502;2023-04-03T15:30:00;11.30;57.10
52555;DHT22;38455;52.710;6.502;2023-04-03T15:32:25;11.10;56.50
52555;DHT22;38455;52.710;6.502;2023-04-03T15:34:51;11.00;56.20
52555;DHT22;38455;52.710;6.502;2023-04-03T15:37:17;11.20;57.40
52555;DHT22;38455;52.710;6.502;2023-04-03T15:39:42;11.10;56.60
52555;DHT22;38455;52.710;6.502;2023-04-03T15:42:08;11.00;56.90
52555;DHT22;38455;52.710;6.502;2023-04-03T15:44:34;10.90;56.80
52555;DHT22;38455;52.710;6.502;2023-04-03T15:47:01;10.90;56.50
52555;DHT22;38455;52.710;6.502;2023-04-03T15:49:27;10.80;56.90
52555;DHT22;38455;52.710;6.502;2023-04-03T15:51:53;10.90;57.40
52555;DHT22;38455;52.710;6.502;2023-04-03T15:54:19;10.80;56.50
52555;DHT22;38455;52.710;6.502;2023-04-03T15:56:46;10.80;56.60
52555;DHT22;38455;52.710;6.502;2023-04-03T15:59:11;10.60;56.40
52555;DHT22;38455;52.710;6.502;2023-04-03T16:01:38;10.60;56.70
52555;DHT22;38455;52.710;6.502;2023-04-03T16:04:06;10.60;56.80
52555;DHT22;38455;52.710;6.502;2023-04-03T16:06:32;10.70;57.40
52555;DHT22;38455;52.710;6.502;2023-04-03T16:08:59;10.70;57.30
52555;DHT22;38455;52.710;6.502;2023-04-03T16:11:26;10.60;57.00
52555;DHT22;38455;52.710;6.502;2023-04-03T16:13:53;10.50;57.00
52555;DHT22;38455;52.710;6.502;2023-04-03T16:16:19;10.40;57.40
52555;DHT22;38455;52.710;6.502;2023-04-03T16:18:45;10.40;57.00
52555;DHT22;38455;52.710;6.502;2023-04-03T16:21:13;10.50;57.60
52555;DHT22;38455;52.710;6.502;2023-04-03T16:23:40;10.40;57.80
52555;DHT22;38455;52.710;6.502;2023-04-03T16:26:06;10.40;58.00
52555;DHT22;38455;52.710;6.502;2023-04-03T16:28:32;10.30;57.50
52555;DHT22;38455;52.710;6.502;2023-04-03T16:30:58;10.30;58.80
52555;DHT22;38455;52.710;6.502;2023-04-03T16:33:25;10.20;58.80
52555;DHT22;38455;52.710;6.502;2023-04-03T16:35:51;10.20;58.10
52555;DHT22;38455;52.710;6.502;2023-04-03T16:38:18;10.10;57.20
52555;DHT22;38455;52.710;6.502;2023-04-03T16:40:48;10.10;57.90
52555;DHT22;38455;52.710;6.502;2023-04-03T16:43:15;10.10;57.90
52555;DHT22;38455;52.710;6.502;2023-04-03T16:45:41;10.00;57.60
52555;DHT22;38455;52.710;6.502;2023-04-03T16:48:07;9.90;57.60
52555;DHT22;38455;52.710;6.502;2023-04-03T16:50:32;9.90;57.90
52555;DHT22;38455;52.710;6.502;2023-04-03T16:52:58;9.80;58.20
52555;DHT22;38455;52.710;6.502;2023-04-03T16:55:24;9.80;58.50
52555;DHT22;38455;52.710;6.502;2023-04-03T16:57:49;9.80;58.40
52555;DHT22;38455;52.710;6.502;2023-04-03T17:00:15;9.80;58.60
52555;DHT22;38455;52.710;6.502;2023-04-03T17:02:41;9.70;58.20
52555;DHT22;38455;52.710;6.502;2023-04-03T17:05:07;9.80;59.00
52555;DHT22;38455;52.710;6.502;2023-04-03T17:07:33;9.70;59.20
52555;DHT22;38455;52.710;6.502;2023-04-03T17:09:59;9.70;59.30
52555;DHT22;38455;52.710;6.502;2023-04-03T17:12:25;9.70;59.90
52555;DHT22;38455;52.710;6.502;2023-04-03T17:14:50;9.60;59.50
52555;DHT22;38455;52.710;6.502;2023-04-03T17:17:20;9.60;59.80
52555;DHT22;38455;52.710;6.502;2023-04-03T17:19:46;9.50;59.40
52555;DHT22;38455;52.710;6.502;2023-04-03T17:22:12;9.40;59.40
52555;DHT22;38455;52.710;6.502;2023-04-03T17:24:38;9.40;59.50
52555;DHT22;38455;52.710;6.502;2023-04-03T17:27:04;9.40;59.90
52555;DHT22;38455;52.710;6.502;2023-04-03T17:29:30;9.30;60.10
52555;DHT22;38455;52.710;6.502;2023-04-03T17:31:55;9.30;60.10